| time (UTC) | temp F | wind direction | speed knots | gust knots | rain 1hr in | rain 24hr in | rain mn in | humidity % | barometer mb |
| 20260509000054 | 64 | 0 | 0.0 | 0.0 | 0.00 | 0.00 | 0.00 | 79 | 1015.1 |
| 20260508234556 | 65 | 0 | 0.0 | 0.0 | 0.00 | 0.00 | 0.00 | 76 | 1014.9 |
| 20260508233106 | 66 | 0 | 0.0 | 0.0 | 0.00 | 0.00 | 0.00 | 73 | 1014.7 |
| 20260508231633 | 66 | 0 | 0.0 | 0.0 | 0.00 | 0.00 | 0.00 | 72 | 1014.9 |
| 20260508224609 | 67 | 0 | 0.0 | 0.9 | 0.00 | 0.00 | 0.00 | 71 | 1014.8 |
| 20260508223100 | 67 | 0 | 0.0 | 0.9 | 0.00 | 0.00 | 0.00 | 70 | 1014.7 |
| 20260508221556 | 68 | 0 | 0.0 | 0.9 | 0.00 | 0.00 | 0.00 | 69 | 1015.0 |
| 20260508214629 | 69 | 0 | 0.0 | 0.9 | 0.00 | 0.00 | 0.00 | 66 | 1014.8 |
| 20260508213058 | 70 | 0 | 0.0 | 0.9 | 0.00 | 0.00 | 0.00 | 67 | 1014.6 |
| 20260508211556 | 70 | 294 | 0.0 | 0.9 | 0.00 | 0.00 | 0.00 | 65 | 1014.8 |
| 20260508210057 | 70 | 294 | 0.0 | 1.7 | 0.00 | 0.00 | 0.00 | 64 | 1015.1 |
| 20260508204559 | 71 | 294 | 0.0 | 1.7 | 0.00 | 0.00 | 0.00 | 62 | 1014.8 |
| 20260508203116 | 71 | 294 | 0.0 | 1.7 | 0.00 | 0.00 | 0.00 | 62 | 1015.0 |
| 20260508201555 | 71 | 0 | 0.0 | 2.6 | 0.00 | 0.00 | 0.00 | 58 | 1015.2 |
| 20260508200059 | 72 | 179 | 0.0 | 2.6 | 0.00 | 0.00 | 0.00 | 56 | 1015.2 |
| 20260508194557 | 72 | 275 | 0.0 | 3.5 | 0.00 | 0.00 | 0.00 | 53 | 1015.4 |
| 20260508193132 | 73 | 0 | 0.9 | 2.6 | 0.00 | 0.00 | 0.00 | 52 | 1015.8 |
| 20260508191604 | 73 | 0 | 0.9 | 3.5 | 0.00 | 0.00 | 0.00 | 52 | 1016.1 |
| 20260508190056 | 73 | 131 | 0.9 | 4.3 | 0.00 | 0.00 | 0.00 | 47 | 1016.2 |
| 20260508184556 | 73 | 0 | 0.9 | 5.2 | 0.00 | 0.00 | 0.00 | 47 | 1016.4 |
| 20260508183057 | 75 | 13 | 0.9 | 3.5 | 0.00 | 0.00 | 0.00 | 47 | 1016.7 |
| 20260508181556 | 72 | 0 | 0.9 | 4.3 | 0.00 | 0.00 | 0.00 | 51 | 1016.9 |
| 20260508180119 | 72 | 228 | 0.9 | 3.5 | 0.00 | 0.00 | 0.00 | 56 | 1017.0 |
| 20260508174611 | 72 | 103 | 0.9 | 2.6 | 0.00 | 0.00 | 0.00 | 54 | 1017.4 |
| 20260508173055 | 70 | 0 | 0.0 | 2.6 | 0.00 | 0.00 | 0.00 | 55 | 1017.6 |
| 20260508171556 | 72 | 0 | 0.0 | 2.6 | 0.00 | 0.00 | 0.00 | 52 | 1017.8 |
| 20260508170057 | 72 | 0 | 0.0 | 3.5 | 0.00 | 0.00 | 0.00 | 52 | 1017.7 |
| 20260508164604 | 71 | 321 | 1.7 | 3.5 | 0.00 | 0.00 | 0.00 | 50 | 1018.2 |
| 20260508163054 | 69 | 297 | 0.0 | 7.8 | 0.00 | 0.00 | 0.00 | 55 | 1018.4 |
| 20260508161604 | 69 | 173 | 0.9 | 3.5 | 0.00 | 0.00 | 0.00 | 61 | 1018.7 |
| 20260508160056 | 68 | 360 | 0.9 | 6.1 | 0.00 | 0.00 | 0.00 | 60 | 1018.7 |
| 20260508154554 | 67 | 261 | 1.7 | 6.1 | 0.00 | 0.00 | 0.00 | 58 | 1018.7 |
| 20260508153056 | 68 | 0 | 0.9 | 3.5 | 0.00 | 0.00 | 0.00 | 56 | 1019.0 |
| 20260508151556 | 66 | 142 | 0.9 | 4.3 | 0.00 | 0.00 | 0.00 | 60 | 1019.1 |
| 20260508150059 | 66 | 208 | 0.9 | 3.5 | 0.00 | 0.00 | 0.00 | 62 | 1019.1 |
| 20260508144555 | 66 | 71 | 0.0 | 5.2 | 0.00 | 0.00 | 0.00 | 63 | 1019.2 |
| 20260508143104 | 66 | 111 | 0.0 | 4.3 | 0.00 | 0.00 | 0.00 | 61 | 1019.1 |
| 20260508141554 | 65 | 107 | 1.7 | 3.5 | 0.00 | 0.00 | 0.00 | 61 | 1019.0 |
| 20260508140104 | 65 | 139 | 0.0 | 2.6 | 0.00 | 0.00 | 0.00 | 61 | 1019.4 |
| 20260508134604 | 64 | 105 | 0.0 | 2.6 | 0.00 | 0.04 | 0.00 | 64 | 1019.5 |
| 20260508133055 | 62 | 146 | 0.0 | 2.6 | 0.00 | 0.04 | 0.00 | 73 | 1019.4 |
| 20260508131553 | 60 | 32 | 0.0 | 1.7 | 0.00 | 0.04 | 0.00 | 77 | 1019.5 |
| 20260508130053 | 57 | 0 | 0.0 | 1.7 | 0.00 | 0.04 | 0.00 | 86 | 1019.5 |
| 20260508124554 | 54 | 0 | 0.0 | 0.0 | 0.00 | 0.11 | 0.00 | 96 | 1019.0 |
| 20260508123100 | 53 | 0 | 0.0 | 0.0 | 0.00 | 0.11 | 0.00 | 96 | 1018.8 |
| 20260508121558 | 51 | 0 | 0.0 | 0.0 | 0.00 | 0.11 | 0.00 | 96 | 1018.5 |
| 20260508120059 | 50 | 0 | 0.0 | 0.0 | 0.00 | 0.11 | 0.00 | 95 | 1018.2 |
| 20260508114609 | 50 | 0 | 0.0 | 0.0 | 0.00 | 0.22 | 0.00 | 95 | 1018.2 |
| 20260508113105 | 49 | 0 | 0.0 | 0.0 | 0.00 | 0.22 | 0.00 | 94 | 1018.0 |
| 20260508111614 | 49 | 0 | 0.0 | 0.0 | 0.00 | 0.22 | 0.00 | 94 | 1017.6 |
| 20260508110100 | 48 | 0 | 0.0 | 0.0 | 0.00 | 0.22 | 0.00 | 94 | 1017.2 |
| 20260508104601 | 48 | 0 | 0.0 | 0.0 | 0.00 | 0.31 | 0.00 | 94 | 1017.0 |
| 20260508103057 | 48 | 0 | 0.0 | 0.0 | 0.00 | 0.31 | 0.00 | 93 | 1016.7 |
| 20260508101558 | 49 | 0 | 0.0 | 0.0 | 0.00 | 0.31 | 0.00 | 94 | 1016.6 |
| 20260508100100 | 49 | 0 | 0.0 | 0.0 | 0.00 | 0.31 | 0.00 | 94 | 1016.3 |
| 20260508094601 | 49 | 0 | 0.0 | 0.0 | 0.00 | 0.37 | 0.00 | 93 | 1016.1 |
| 20260508093104 | 49 | 0 | 0.0 | 0.0 | 0.00 | 0.37 | 0.00 | 93 | 1016.1 |
| 20260508091613 | 49 | 0 | 0.0 | 0.0 | 0.00 | 0.37 | 0.00 | 93 | 1015.9 |
| 20260508084558 | 49 | 0 | 0.0 | 0.0 | 0.00 | 0.45 | 0.00 | 93 | 1015.6 |
| 20260508083108 | 50 | 0 | 0.0 | 0.0 | 0.00 | 0.45 | 0.00 | 93 | 1015.7 |
| 20260508081609 | 50 | 0 | 0.0 | 0.0 | 0.00 | 0.45 | 0.00 | 93 | 1015.5 |
| 20260508080105 | 50 | 0 | 0.0 | 0.0 | 0.00 | 0.45 | 0.00 | 92 | 1015.4 |
| 20260508074604 | 50 | 0 | 0.0 | 0.0 | 0.00 | 0.83 | 0.00 | 92 | 1015.6 |
| 20260508073100 | 50 | 0 | 0.0 | 0.0 | 0.00 | 0.83 | 0.00 | 92 | 1015.4 |
| 20260508071556 | 51 | 0 | 0.0 | 0.9 | 0.00 | 0.83 | 0.00 | 92 | 1015.5 |
| 20260508070059 | 51 | 0 | 0.0 | 0.9 | 0.00 | 0.83 | 0.00 | 92 | 1015.4 |
| 20260508064602 | 51 | 0 | 0.0 | 1.7 | 0.00 | 0.94 | 0.00 | 91 | 1015.3 |
| 20260508063105 | 52 | 0 | 0.0 | 0.9 | 0.00 | 0.94 | 0.00 | 91 | 1015.2 |
| 20260508061601 | 52 | 0 | 0.0 | 0.0 | 0.00 | 0.94 | 0.00 | 90 | 1015.2 |
| 20260508060058 | 53 | 0 | 0.0 | 0.9 | 0.00 | 0.94 | 0.00 | 89 | 1015.3 |
| 20260508054556 | 53 | 0 | 0.0 | 0.9 | 0.00 | 1.10 | 0.00 | 89 | 1015.3 |
| 20260508053106 | 53 | 0 | 0.0 | 0.9 | 0.00 | 1.10 | 0.00 | 88 | 1015.4 |
| 20260508051606 | 54 | 0 | 0.0 | 0.9 | 0.00 | 1.10 | 0.00 | 86 | 1015.4 |
| 20260508050058 | 55 | 0 | 0.0 | 0.9 | 0.00 | 1.10 | 0.00 | 86 | 1015.4 |
| 20260508044605 | 55 | 0 | 0.0 | 0.0 | 0.00 | 1.28 | 0.00 | 84 | 1015.3 |
| 20260508043056 | 56 | 0 | 0.0 | 0.9 | 0.00 | 1.28 | 0.00 | 83 | 1015.1 |
| 20260508041600 | 57 | 0 | 0.0 | 0.9 | 0.00 | 1.28 | 0.00 | 83 | 1015.1 |
| 20260508040058 | 57 | 0 | 0.0 | 0.9 | 0.00 | 1.28 | 0.00 | 80 | 1014.9 |
| 20260508034600 | 58 | 0 | 0.0 | 0.0 | 0.00 | 1.28 | 1.28 | 78 | 1014.9 |
| 20260508033101 | 59 | 5 | 0.0 | 1.7 | 0.00 | 1.28 | 1.28 | 79 | 1015.1 |
| 20260508031557 | 61 | 0 | 0.0 | 0.9 | 0.00 | 1.28 | 1.28 | 79 | 1014.9 |
| 20260508030059 | 61 | 0 | 0.9 | 2.6 | 0.00 | 1.28 | 1.28 | 69 | 1014.6 |
| 20260508024604 | 61 | 5 | 0.9 | 2.6 | 0.00 | 1.28 | 1.28 | 72 | 1014.3 |
| 20260508023058 | 61 | 5 | 0.0 | 1.7 | 0.00 | 1.28 | 1.28 | 73 | 1014.2 |
| 20260508021619 | 61 | 0 | 0.0 | 0.9 | 0.00 | 1.28 | 1.28 | 79 | 1014.0 |
| 20260508020100 | 62 | 5 | 0.0 | 0.9 | 0.00 | 1.28 | 1.28 | 79 | 1014.0 |
| 20260508014601 | 62 | 0 | 0.0 | 1.7 | 0.00 | 1.36 | 1.28 | 78 | 1013.8 |
| 20260508013058 | 63 | 0 | 0.0 | 1.7 | 0.00 | 1.36 | 1.28 | 77 | 1013.5 |
| 20260508011609 | 64 | 0 | 0.0 | 0.9 | 0.00 | 1.36 | 1.28 | 75 | 1013.2 |
| 20260508010056 | 64 | 5 | 0.9 | 1.7 | 0.00 | 1.36 | 1.28 | 72 | 1013.1 |
| 20260508004603 | 65 | 5 | 0.0 | 1.7 | 0.00 | 2.14 | 1.28 | 72 | 1012.6 |
| 20260508003058 | 66 | 0 | 0.0 | 0.0 | 0.00 | 2.14 | 1.28 | 69 | 1012.3 |
| 20260508001555 | 67 | 0 | 0.0 | 0.9 | 0.00 | 2.14 | 1.28 | 68 | 1012.1 |